createdAt,value
2022-11-23T00:01:14.564Z,2.25
2022-11-23T00:03:40.854Z,1.95
2022-11-23T00:06:07.153Z,2.53
2022-11-23T00:08:33.374Z,1.67
2022-11-23T00:10:59.725Z,1.50
2022-11-23T00:13:25.941Z,1.30
2022-11-23T00:15:52.185Z,1.52
2022-11-23T00:18:18.616Z,1.60
2022-11-23T00:20:45.116Z,1.40
2022-11-23T00:23:11.306Z,1.33
2022-11-23T00:25:37.542Z,1.10
2022-11-23T00:28:03.925Z,1.27
2022-11-23T00:30:30.183Z,1.85
2022-11-23T00:32:56.475Z,1.13
2022-11-23T00:35:23.222Z,1.05
2022-11-23T00:37:49.429Z,1.92
2022-11-23T00:40:15.907Z,1.25
2022-11-23T00:42:42.123Z,1.45
2022-11-23T00:45:08.617Z,1.30
2022-11-23T00:47:34.808Z,1.40
2022-11-23T00:50:01.023Z,1.20
2022-11-23T00:52:27.296Z,1.73
2022-11-23T00:54:53.548Z,1.42
2022-11-23T00:57:19.799Z,1.40
2022-11-23T00:59:46.063Z,1.35
2022-11-23T01:02:12.300Z,1.23
2022-11-23T01:04:39.043Z,1.38
2022-11-23T01:07:05.449Z,1.63
2022-11-23T01:09:31.903Z,1.33
2022-11-23T01:11:58.356Z,1.17
2022-11-23T01:14:24.580Z,1.30
2022-11-23T01:16:50.967Z,1.05
2022-11-23T01:19:18.722Z,1.30
2022-11-23T01:21:44.928Z,1.05
2022-11-23T01:24:15.274Z,1.25
2022-11-23T01:26:41.546Z,1.15
2022-11-23T01:29:08.148Z,1.30
2022-11-23T01:31:34.476Z,1.20
2022-11-23T01:34:01.632Z,1.33
2022-11-23T01:36:29.614Z,1.60
2022-11-23T01:38:56.097Z,1.35
2022-11-23T01:41:23.706Z,1.20
2022-11-23T01:43:50.508Z,1.63
2022-11-23T01:46:16.956Z,1.48
2022-11-23T01:48:52.984Z,1.50
2022-11-23T01:51:21.943Z,1.38
2022-11-23T01:53:48.898Z,1.30
2022-11-23T01:56:17.122Z,1.42
2022-11-23T01:58:46.608Z,1.35
2022-11-23T02:01:13.586Z,1.25
2022-11-23T02:03:40.166Z,1.45
2022-11-23T02:06:10.032Z,2.15
2022-11-23T02:08:36.326Z,1.50
2022-11-23T02:11:03.184Z,1.50
2022-11-23T02:13:29.405Z,1.95
2022-11-23T02:15:57.334Z,1.77
2022-11-23T02:18:24.982Z,1.83
2022-11-23T02:20:51.833Z,1.83
2022-11-23T02:23:34.040Z,1.33
2022-11-23T02:26:02.496Z,1.77
2022-11-23T02:28:34.388Z,1.55
2022-11-23T02:31:01.242Z,1.65
2022-11-23T02:33:27.429Z,1.70
2022-11-23T02:35:55.933Z,1.77
2022-11-23T02:38:22.702Z,2.40
2022-11-23T02:40:49.023Z,2.13
2022-11-23T02:43:15.446Z,1.92
2022-11-23T02:45:41.620Z,2.30
2022-11-23T02:48:07.865Z,1.90
2022-11-23T02:50:34.197Z,2.10
2022-11-23T02:53:00.402Z,1.58
2022-11-23T02:55:26.602Z,1.70
2022-11-23T02:57:52.940Z,1.90
2022-11-23T03:00:19.152Z,2.10
2022-11-23T03:02:45.442Z,2.40
2022-11-23T03:05:11.687Z,2.25
2022-11-23T03:07:37.970Z,2.15
2022-11-23T03:10:04.596Z,1.80
2022-11-23T03:12:30.904Z,2.38
2022-11-23T03:14:57.141Z,2.00
2022-11-23T03:17:23.394Z,1.63
2022-11-23T03:19:49.651Z,1.95
2022-11-23T03:22:15.908Z,1.60
2022-11-23T03:24:42.175Z,1.80
2022-11-23T03:27:08.383Z,2.20
2022-11-23T03:29:34.898Z,2.13
2022-11-23T03:32:01.381Z,1.75
2022-11-23T03:34:27.567Z,1.75
2022-11-23T03:36:53.771Z,1.95
2022-11-23T03:39:20.062Z,1.58
2022-11-23T03:41:46.349Z,2.00
2022-11-23T03:44:12.686Z,1.60
2022-11-23T03:46:38.927Z,2.10
2022-11-23T03:49:05.142Z,1.40
2022-11-23T03:51:31.377Z,1.85
2022-11-23T03:53:57.630Z,1.90
2022-11-23T03:56:24.410Z,2.20
2022-11-23T03:58:50.607Z,1.75
2022-11-23T04:01:16.903Z,1.35
2022-11-23T04:03:43.198Z,1.80
2022-11-23T04:06:09.410Z,1.60
2022-11-23T04:08:35.691Z,2.00
2022-11-23T04:11:01.917Z,2.13
2022-11-23T04:13:28.101Z,1.83
2022-11-23T04:15:54.299Z,1.98
2022-11-23T04:18:20.555Z,2.20
2022-11-23T04:20:46.763Z,1.60
2022-11-23T04:23:13.704Z,2.00
2022-11-23T04:25:39.999Z,1.98
2022-11-23T04:28:06.235Z,1.85
2022-11-23T04:30:32.418Z,1.65
2022-11-23T04:32:58.629Z,1.48
2022-11-23T04:35:24.807Z,2.03
2022-11-23T04:37:51.010Z,1.70
2022-11-23T04:40:17.213Z,1.83
2022-11-23T04:42:43.421Z,2.00
2022-11-23T04:45:11.234Z,1.95
2022-11-23T04:47:37.426Z,1.70
2022-11-23T04:50:03.863Z,2.72
2022-11-23T04:52:30.052Z,1.50
2022-11-23T04:54:56.341Z,1.88
2022-11-23T04:57:22.530Z,2.22
2022-11-23T04:59:48.756Z,2.08
2022-11-23T05:02:15.086Z,2.03
2022-11-23T05:04:41.381Z,1.73
2022-11-23T05:07:07.624Z,2.10
2022-11-23T05:09:34.071Z,1.77
2022-11-23T05:12:00.481Z,2.03
2022-11-23T05:14:26.756Z,2.65
2022-11-23T05:16:52.949Z,1.85
2022-11-23T05:19:19.310Z,1.98
2022-11-23T05:21:45.513Z,2.10
2022-11-23T05:24:11.935Z,1.95
2022-11-23T05:26:38.169Z,2.80
2022-11-23T05:29:04.683Z,3.28
2022-11-23T05:31:30.938Z,1.60
2022-11-23T05:33:57.203Z,2.17
2022-11-23T05:36:23.384Z,1.95
2022-11-23T05:38:49.619Z,1.80
2022-11-23T05:41:15.843Z,2.03
2022-11-23T05:43:42.057Z,1.95
2022-11-23T05:46:08.234Z,2.08
2022-11-23T05:48:34.487Z,1.92
2022-11-23T05:51:05.110Z,1.77
2022-11-23T05:53:31.936Z,2.17
2022-11-23T05:56:01.947Z,1.60
2022-11-23T05:58:28.659Z,1.60
2022-11-23T06:01:01.321Z,1.58
2022-11-23T06:03:27.607Z,1.80
2022-11-23T06:05:54.169Z,1.80
2022-11-23T06:08:20.550Z,1.67
2022-11-23T06:10:46.756Z,1.45
2022-11-23T06:13:12.963Z,2.03
2022-11-23T06:15:39.208Z,1.70
2022-11-23T06:18:06.478Z,1.75
2022-11-23T06:20:32.660Z,1.60
2022-11-23T06:22:58.868Z,2.10
2022-11-23T06:25:25.117Z,1.52
2022-11-23T06:27:52.992Z,1.77
2022-11-23T06:30:19.191Z,1.63
2022-11-23T06:32:45.405Z,2.10
2022-11-23T06:35:11.715Z,1.95
2022-11-23T06:37:37.988Z,2.15
2022-11-23T06:40:04.333Z,2.33
2022-11-23T06:42:38.776Z,1.48
2022-11-23T06:45:06.395Z,2.00
2022-11-23T06:47:32.570Z,1.88
2022-11-23T06:49:58.816Z,2.35
2022-11-23T06:52:25.004Z,2.05
2022-11-23T06:54:51.261Z,2.42
2022-11-23T06:57:17.454Z,2.38
2022-11-23T06:59:45.485Z,1.92
2022-11-23T07:02:12.433Z,2.15
2022-11-23T07:04:38.630Z,2.33
2022-11-23T07:07:04.920Z,2.00
2022-11-23T07:09:31.417Z,2.83
2022-11-23T07:11:57.767Z,2.80
2022-11-23T07:14:23.997Z,2.63
2022-11-23T07:16:50.257Z,2.58
2022-11-23T07:19:16.518Z,3.17
2022-11-23T07:21:42.962Z,2.45
2022-11-23T07:24:09.239Z,2.95
2022-11-23T07:26:35.449Z,2.67
2022-11-23T07:29:01.773Z,3.47
2022-11-23T07:31:28.057Z,2.60
2022-11-23T07:33:54.289Z,2.50
2022-11-23T07:36:20.662Z,2.53
2022-11-23T07:38:46.888Z,2.72
2022-11-23T07:41:13.095Z,2.30
2022-11-23T07:43:39.273Z,2.78
2022-11-23T07:46:05.554Z,2.45
2022-11-23T07:48:36.191Z,2.40
2022-11-23T07:51:02.828Z,2.83
2022-11-23T07:53:29.063Z,2.10
2022-11-23T07:55:56.281Z,2.50
2022-11-23T07:58:22.577Z,2.30
2022-11-23T08:00:48.769Z,2.97
2022-11-23T08:03:30.712Z,2.40
2022-11-23T08:05:57.207Z,2.92
2022-11-23T08:08:23.721Z,2.50
2022-11-23T08:10:53.512Z,2.53
2022-11-23T08:13:20.483Z,2.90
2022-11-23T08:15:53.375Z,2.80
2022-11-23T08:18:21.051Z,2.55
2022-11-23T08:20:47.299Z,2.60
2022-11-23T08:23:13.504Z,2.50
2022-11-23T08:25:39.782Z,2.40
2022-11-23T08:28:06.033Z,2.95
2022-11-23T08:30:32.912Z,2.65
2022-11-23T08:32:59.484Z,2.15
2022-11-23T08:35:25.708Z,2.30
2022-11-23T08:37:51.985Z,2.20
2022-11-23T08:40:24.773Z,2.63
2022-11-23T08:42:51.897Z,2.88
2022-11-23T08:45:18.133Z,2.30
2022-11-23T08:47:44.399Z,2.40
2022-11-23T08:50:10.599Z,3.03
2022-11-23T08:52:36.851Z,2.20
2022-11-23T08:55:03.316Z,2.30
2022-11-23T08:57:29.564Z,2.92
2022-11-23T08:59:55.758Z,4.25
2022-11-23T09:02:21.971Z,3.10
2022-11-23T09:04:48.357Z,2.55
2022-11-23T09:07:14.620Z,2.67
2022-11-23T09:09:40.851Z,2.60
2022-11-23T09:12:07.119Z,2.63
2022-11-23T09:14:33.805Z,3.15
2022-11-23T09:17:00.911Z,2.72
2022-11-23T09:19:27.371Z,2.65
2022-11-23T09:21:54.139Z,2.70
2022-11-23T09:24:20.484Z,2.55
2022-11-23T09:26:46.757Z,2.60
2022-11-23T09:29:13.178Z,3.08
2022-11-23T09:31:39.434Z,1.92
2022-11-23T09:34:05.685Z,2.63
2022-11-23T09:36:31.973Z,2.95
2022-11-23T09:38:58.315Z,3.42
2022-11-23T09:41:43.262Z,2.38
2022-11-23T09:44:32.732Z,2.22
2022-11-23T09:47:18.085Z,3.00
2022-11-23T09:49:44.270Z,2.72
2022-11-23T09:52:15.667Z,3.08
2022-11-23T09:54:43.119Z,2.50
2022-11-23T09:57:11.875Z,3.33
2022-11-23T09:59:42.745Z,3.28
2022-11-23T10:02:18.697Z,2.70
2022-11-23T10:04:44.890Z,3.65
2022-11-23T10:07:17.410Z,3.03
2022-11-23T10:09:54.555Z,2.50
2022-11-23T10:12:26.202Z,2.30
2022-11-23T10:15:01.496Z,3.45
2022-11-23T10:17:41.357Z,2.97
2022-11-23T10:20:10.536Z,3.85
2022-11-23T10:22:57.288Z,2.75
2022-11-23T10:25:24.057Z,3.20
2022-11-23T10:27:51.644Z,3.70
2022-11-23T10:30:18.655Z,2.63
2022-11-23T10:32:55.307Z,2.45
2022-11-23T10:35:32.774Z,2.15
2022-11-23T10:38:18.348Z,2.35
2022-11-23T10:40:58.274Z,2.58
2022-11-23T10:43:26.646Z,2.13
2022-11-23T10:46:12.956Z,2.15
2022-11-23T10:48:39.231Z,2.25
2022-11-23T10:51:22.741Z,1.85
2022-11-23T10:54:02.098Z,2.20
2022-11-23T10:56:31.590Z,2.00
2022-11-23T10:58:58.121Z,2.28
2022-11-23T11:01:25.907Z,2.20
2022-11-23T11:03:53.119Z,1.63
2022-11-23T11:06:24.168Z,1.92
2022-11-23T11:09:13.540Z,1.88
2022-11-23T11:11:45.260Z,1.50
2022-11-23T11:16:37.835Z,1.70
2022-11-23T11:19:22.170Z,1.63
2022-11-23T11:21:48.533Z,1.63
2022-11-23T11:24:17.762Z,1.60
2022-11-23T11:26:51.474Z,1.77
2022-11-23T11:29:38.731Z,2.22
2022-11-23T11:32:14.702Z,2.22
2022-11-23T11:34:43.752Z,2.35
2022-11-23T11:37:25.568Z,2.15
2022-11-23T11:39:57.363Z,1.70
2022-11-23T11:42:27.441Z,1.85
2022-11-23T11:44:54.403Z,2.00
2022-11-23T11:47:41.680Z,1.70
2022-11-23T11:50:34.371Z,2.25
2022-11-23T11:53:05.950Z,2.33
2022-11-23T11:58:03.677Z,2.53
2022-11-23T12:03:20.722Z,2.13
2022-11-23T12:05:54.523Z,1.87
2022-11-23T12:08:20.706Z,3.40
2022-11-23T12:10:46.901Z,2.22
2022-11-23T12:13:17.927Z,4.03
2022-11-23T12:15:50.544Z,8.45
2022-11-23T12:18:16.984Z,3.25
2022-11-23T12:20:43.131Z,3.40
2022-11-23T12:23:27.879Z,8.38
2022-11-23T12:26:15.641Z,7.22
2022-11-23T12:28:48.912Z,2.92
2022-11-23T12:31:39.276Z,2.20
2022-11-23T12:34:12.062Z,1.90
2022-11-23T12:36:38.330Z,1.90
2022-11-23T12:39:16.671Z,1.98
2022-11-23T12:41:52.760Z,2.40
2022-11-23T12:44:38.901Z,2.05
2022-11-23T12:47:23.875Z,1.90
2022-11-23T12:49:53.626Z,1.65
2022-11-23T12:52:47.245Z,1.98
2022-11-23T12:55:20.426Z,2.08
2022-11-23T12:57:51.452Z,1.77
2022-11-23T13:00:19.147Z,1.70
2022-11-23T13:02:57.289Z,1.55
2022-11-23T13:05:32.657Z,1.30
2022-11-23T13:07:59.028Z,1.30
2022-11-23T13:10:25.654Z,1.13
2022-11-23T13:13:15.601Z,1.60
2022-11-23T13:16:01.286Z,1.95
2022-11-23T13:18:46.140Z,1.90
2022-11-23T13:21:35.031Z,1.38
2022-11-23T13:24:01.335Z,1.70
2022-11-23T13:26:28.234Z,1.50
2022-11-23T13:28:56.927Z,1.50
2022-11-23T13:31:26.119Z,1.35
2022-11-23T13:33:54.843Z,1.60
2022-11-23T13:36:43.005Z,2.03
2022-11-23T13:39:32.289Z,1.60
2022-11-23T13:42:01.251Z,1.70
2022-11-23T13:44:29.070Z,1.80
2022-11-23T13:47:06.396Z,2.10
2022-11-23T13:49:43.259Z,1.90
2022-11-23T13:52:15.720Z,2.00
2022-11-23T13:54:42.066Z,1.80
2022-11-23T13:57:12.207Z,1.88
2022-11-23T13:59:38.531Z,1.92
2022-11-23T14:02:07.727Z,2.30
2022-11-23T14:04:35.630Z,2.38
2022-11-23T14:07:08.295Z,2.35
2022-11-23T14:09:56.063Z,2.30
2022-11-23T14:12:35.046Z,2.38
2022-11-23T14:15:18.472Z,2.40
2022-11-23T14:17:56.966Z,2.47
2022-11-23T14:20:25.985Z,2.22
2022-11-23T14:22:54.935Z,2.38
2022-11-23T14:25:24.185Z,2.40
2022-11-23T14:27:50.435Z,2.38
2022-11-23T14:30:21.243Z,2.25
2022-11-23T14:32:47.441Z,1.80
2022-11-23T14:35:25.446Z,2.00
2022-11-23T14:38:27.760Z,1.80
2022-11-23T14:41:05.931Z,1.92
2022-11-23T14:43:33.282Z,1.88
2022-11-23T14:46:00.474Z,2.47
2022-11-23T14:48:31.386Z,1.90
2022-11-23T14:51:02.928Z,2.25
2022-11-23T14:55:55.567Z,1.70
2022-11-23T14:58:25.567Z,2.22
2022-11-23T15:00:52.658Z,1.90
2022-11-23T15:03:49.517Z,2.78
2022-11-23T15:06:12.895Z,2.15
2022-11-23T15:08:45.416Z,2.28
2022-11-23T15:11:15.163Z,2.50
2022-11-23T15:13:44.135Z,2.40
2022-11-23T15:16:11.698Z,2.00
2022-11-23T15:18:38.235Z,2.72
2022-11-23T15:21:11.802Z,2.10
2022-11-23T15:23:51.409Z,2.50
2022-11-23T15:26:46.112Z,2.63
2022-11-23T15:29:26.902Z,2.65
2022-11-23T15:32:14.084Z,2.22
2022-11-23T15:34:39.728Z,2.22
2022-11-23T15:37:05.943Z,2.40
2022-11-23T15:39:32.757Z,2.38
2022-11-23T15:41:59.172Z,2.30
2022-11-23T15:44:26.780Z,2.40
2022-11-23T15:46:54.464Z,2.50
2022-11-23T15:49:20.832Z,2.60
2022-11-23T15:51:47.063Z,2.10
2022-11-23T15:54:21.803Z,2.50
2022-11-23T15:56:49.324Z,2.53
2022-11-23T15:59:33.560Z,2.67
2022-11-23T16:02:01.678Z,2.53
2022-11-23T16:04:35.399Z,2.47
2022-11-23T16:07:20.574Z,2.17
2022-11-23T16:09:51.876Z,2.30
2022-11-23T16:12:20.852Z,2.63
2022-11-23T16:14:47.225Z,2.40
2022-11-23T16:17:26.704Z,2.33
2022-11-23T16:19:53.781Z,2.70
2022-11-23T16:22:35.771Z,2.35
2022-11-23T16:25:07.217Z,3.10
2022-11-23T16:27:33.551Z,2.60
2022-11-23T16:30:03.310Z,2.40
2022-11-23T16:32:31.208Z,2.80
2022-11-23T16:35:14.234Z,2.70
2022-11-23T16:37:40.412Z,2.90
2022-11-23T16:40:06.900Z,2.88
2022-11-23T16:42:33.130Z,3.45
2022-11-23T16:44:59.396Z,3.17
2022-11-23T16:47:26.881Z,3.33
2022-11-23T16:49:53.317Z,3.40
2022-11-23T16:52:20.024Z,3.20
2022-11-23T16:54:46.451Z,3.78
2022-11-23T16:57:18.521Z,2.75
2022-11-23T16:59:44.840Z,2.35
2022-11-23T17:02:12.424Z,2.30
2022-11-23T17:04:38.939Z,2.60
2022-11-23T17:07:05.402Z,2.90
2022-11-23T17:09:32.044Z,3.50
2022-11-23T17:11:58.534Z,3.50
2022-11-23T17:14:30.291Z,4.00
2022-11-23T17:16:56.616Z,3.95
2022-11-23T17:19:23.124Z,3.75
2022-11-23T17:21:49.414Z,3.85
2022-11-23T17:24:15.873Z,3.78
2022-11-23T17:26:44.258Z,3.47
2022-11-23T17:29:19.496Z,3.22
2022-11-23T17:31:46.403Z,3.38
2022-11-23T17:34:13.066Z,3.38
2022-11-23T17:36:39.808Z,2.60
2022-11-23T17:39:06.089Z,2.88
2022-11-23T17:41:32.440Z,2.75
2022-11-23T17:43:59.836Z,2.35
2022-11-23T17:46:26.972Z,2.50
2022-11-23T17:48:57.609Z,2.47
2022-11-23T17:51:24.058Z,3.97
2022-11-23T17:53:50.330Z,2.80
2022-11-23T17:56:17.753Z,3.42
2022-11-23T17:58:44.043Z,4.25
2022-11-23T18:01:14.907Z,3.47
2022-11-23T18:03:41.941Z,3.97
2022-11-23T18:06:15.543Z,3.53
2022-11-23T18:08:45.438Z,3.60
2022-11-23T18:11:11.750Z,3.42
2022-11-23T18:13:38.180Z,4.13
2022-11-23T18:16:04.649Z,3.22
2022-11-23T18:18:31.035Z,3.22
2022-11-23T18:20:58.756Z,3.35
2022-11-23T18:23:25.305Z,3.40
2022-11-23T18:26:01.618Z,3.88
2022-11-23T18:28:27.854Z,3.90
2022-11-23T18:30:54.392Z,3.97
2022-11-23T18:33:20.818Z,3.78
2022-11-23T18:35:47.079Z,4.35
2022-11-23T18:38:13.443Z,3.90
2022-11-23T18:40:39.721Z,4.10
2022-11-23T18:43:05.916Z,3.92
2022-11-23T18:45:32.174Z,4.35
2022-11-23T18:47:58.392Z,3.30
2022-11-23T18:50:25.178Z,3.47
2022-11-23T18:52:51.435Z,3.83
2022-11-23T18:55:17.703Z,3.42
2022-11-23T18:57:43.936Z,3.10
2022-11-23T19:00:11.449Z,3.75
2022-11-23T19:02:38.510Z,3.10
2022-11-23T19:05:04.891Z,3.40
2022-11-23T19:07:31.207Z,3.40
2022-11-23T19:09:57.405Z,3.50
2022-11-23T19:12:24.687Z,3.22
2022-11-23T19:14:50.958Z,3.30
2022-11-23T19:17:17.652Z,3.70
2022-11-23T19:19:43.867Z,3.47
2022-11-23T19:22:10.091Z,3.45
2022-11-23T19:24:36.294Z,3.40
2022-11-23T19:27:02.523Z,3.30
2022-11-23T19:29:28.816Z,3.92
2022-11-23T19:31:55.079Z,3.65
2022-11-23T19:34:21.871Z,3.35
2022-11-23T19:36:48.169Z,3.50
2022-11-23T19:39:14.727Z,3.97
2022-11-23T19:41:41.519Z,3.70
2022-11-23T19:44:11.825Z,3.10
2022-11-23T19:46:38.060Z,4.00
2022-11-23T19:49:04.925Z,3.50
2022-11-23T19:51:31.673Z,3.78
2022-11-23T19:53:58.137Z,3.70
2022-11-23T19:56:25.828Z,3.85
2022-11-23T19:58:53.101Z,4.00
2022-11-23T20:01:20.763Z,4.32
2022-11-23T20:03:48.386Z,4.82
2022-11-23T20:06:24.000Z,4.63
2022-11-23T20:08:54.407Z,5.20
2022-11-23T20:11:20.748Z,4.85
2022-11-23T20:13:46.968Z,4.53
2022-11-23T20:16:15.858Z,5.10
2022-11-23T20:18:43.281Z,4.50
2022-11-23T20:21:13.315Z,4.97
2022-11-23T20:23:40.253Z,4.90
2022-11-23T20:26:06.813Z,5.00
2022-11-23T20:28:33.015Z,4.85
2022-11-23T20:31:06.083Z,4.88
2022-11-23T20:33:32.594Z,5.15
2022-11-23T20:36:14.884Z,5.00
2022-11-23T20:38:41.684Z,5.40
2022-11-23T20:41:15.310Z,5.28
2022-11-23T20:43:42.117Z,5.10
2022-11-23T20:46:08.369Z,5.25
2022-11-23T20:48:39.203Z,5.68
2022-11-23T20:51:10.289Z,5.93
2022-11-23T20:56:04.664Z,5.18
2022-11-23T20:58:31.412Z,4.47
2022-11-23T21:01:02.966Z,5.25
2022-11-23T21:05:55.543Z,5.07
2022-11-23T21:08:30.220Z,5.28
2022-11-23T21:11:24.270Z,5.57
2022-11-23T21:14:15.613Z,5.60
2022-11-23T21:16:55.486Z,4.32
2022-11-23T21:19:23.043Z,5.10
2022-11-23T21:21:49.687Z,4.53
2022-11-23T21:24:15.915Z,5.30
2022-11-23T21:26:42.125Z,5.68
2022-11-23T21:29:11.038Z,5.47
2022-11-23T21:31:38.837Z,5.60
2022-11-23T21:34:06.792Z,5.68
2022-11-23T21:36:34.096Z,4.80
2022-11-23T21:39:07.714Z,5.40
2022-11-23T21:41:34.357Z,5.20
2022-11-23T21:44:00.609Z,5.45
2022-11-23T21:46:27.198Z,5.68
2022-11-23T21:48:54.623Z,5.72
2022-11-23T21:51:21.567Z,5.78
2022-11-23T21:53:47.900Z,5.90
2022-11-23T21:56:15.252Z,6.07
2022-11-23T21:58:41.748Z,6.03
2022-11-23T22:01:12.140Z,7.35
2022-11-23T22:03:38.443Z,6.15
2022-11-23T22:06:04.809Z,6.45
2022-11-23T22:08:31.377Z,6.30
2022-11-23T22:10:57.730Z,5.65
2022-11-23T22:13:24.018Z,5.90
2022-11-23T22:15:50.246Z,6.60
2022-11-23T22:18:16.579Z,6.38
2022-11-23T22:20:42.780Z,6.50
2022-11-23T22:23:09.967Z,6.50
2022-11-23T22:25:36.226Z,7.00
2022-11-23T22:28:02.502Z,6.53
2022-11-23T22:30:29.338Z,6.00
2022-11-23T22:32:56.326Z,5.60
2022-11-23T22:35:22.514Z,5.22
2022-11-23T22:37:48.714Z,5.63
2022-11-23T22:40:15.187Z,5.22
2022-11-23T22:42:41.425Z,5.35
2022-11-23T22:45:08.112Z,5.80
2022-11-23T22:47:34.397Z,5.65
2022-11-23T22:50:00.645Z,5.50
2022-11-23T22:52:26.860Z,6.07
2022-11-23T22:54:53.052Z,5.75
2022-11-23T22:57:20.324Z,5.25
2022-11-23T22:59:46.519Z,6.53
2022-11-23T23:02:12.862Z,4.80
2022-11-23T23:04:39.188Z,4.95
2022-11-23T23:07:05.368Z,4.72
2022-11-23T23:09:31.575Z,4.75
2022-11-23T23:11:57.773Z,5.40
2022-11-23T23:14:24.321Z,5.15
2022-11-23T23:16:50.556Z,4.72
2022-11-23T23:19:16.774Z,5.25
2022-11-23T23:21:42.958Z,4.60
2022-11-23T23:24:09.406Z,5.45
2022-11-23T23:26:36.153Z,4.60
2022-11-23T23:29:02.358Z,4.82
2022-11-23T23:31:29.910Z,4.45
2022-11-23T23:33:57.032Z,3.78
2022-11-23T23:36:23.618Z,4.05
2022-11-23T23:38:50.719Z,4.75
2022-11-23T23:41:17.246Z,4.05
2022-11-23T23:43:43.666Z,4.60
2022-11-23T23:46:10.942Z,4.60
2022-11-23T23:48:37.967Z,4.20
2022-11-23T23:51:04.970Z,4.78
2022-11-23T23:53:32.631Z,4.30
2022-11-23T23:55:59.683Z,3.88
2022-11-23T23:58:26.334Z,4.15
